createdAt,value
2022-12-18T00:01:32.457Z,99892.25
2022-12-18T00:04:01.090Z,99888.78
2022-12-18T00:06:30.214Z,99894.91
2022-12-18T00:08:58.672Z,99897.50
2022-12-18T00:11:28.901Z,99906.97
2022-12-18T00:13:58.342Z,99905.19
2022-12-18T00:16:27.237Z,99909.47
2022-12-18T00:18:56.757Z,99899.97
2022-12-18T00:21:23.741Z,99910.28
2022-12-18T00:23:51.036Z,99912.00
2022-12-18T00:26:31.632Z,99917.16
2022-12-18T00:29:05.713Z,99924.03
2022-12-18T00:31:33.311Z,99941.34
2022-12-18T00:34:01.810Z,99943.09
2022-12-18T00:36:31.608Z,99945.69
2022-12-18T00:38:59.698Z,99944.81
2022-12-18T00:41:46.571Z,99951.72
2022-12-18T00:44:15.550Z,99949.06
2022-12-18T00:46:43.755Z,99954.22
2022-12-18T00:49:10.949Z,99954.22
2022-12-18T00:51:38.028Z,99953.41
2022-12-18T00:54:05.979Z,99958.63
2022-12-18T00:56:32.817Z,99962.97
2022-12-18T00:58:59.747Z,99976.00
2022-12-18T01:01:26.751Z,99968.94
2022-12-18T01:03:53.822Z,99980.16
2022-12-18T01:06:21.117Z,99972.31
2022-12-18T01:08:48.272Z,99979.28
2022-12-18T01:11:19.033Z,99979.34
2022-12-18T01:13:46.097Z,99990.63
2022-12-18T01:16:17.778Z,99996.63
2022-12-18T01:18:44.964Z,99995.78
2022-12-18T01:21:16.019Z,99991.50
2022-12-18T01:23:45.779Z,99997.53
2022-12-18T01:26:15.718Z,99995.81
2022-12-18T01:28:44.875Z,99996.63
2022-12-18T01:31:31.528Z,99990.53
2022-12-18T01:33:59.106Z,99998.31
2022-12-18T01:36:29.750Z,100005.16
2022-12-18T01:38:57.699Z,100005.28
2022-12-18T01:41:27.707Z,100005.28
2022-12-18T01:43:58.531Z,100013.97
2022-12-18T01:46:27.488Z,100007.00
2022-12-18T01:49:02.144Z,100000.94
2022-12-18T01:51:31.552Z,100007.94
2022-12-18T01:54:01.623Z,99998.22
2022-12-18T01:56:28.640Z,100016.38
2022-12-18T01:59:01.780Z,100021.59
2022-12-18T02:01:31.728Z,100020.66
2022-12-18T02:04:23.753Z,100024.97
2022-12-18T02:07:20.117Z,100030.03
2022-12-18T02:10:03.400Z,100034.34
2022-12-18T02:12:42.287Z,100030.94
2022-12-18T02:15:20.836Z,100040.38
2022-12-18T02:18:08.782Z,100057.72
2022-12-18T02:20:47.555Z,100060.25
2022-12-18T02:23:33.209Z,100058.56
2022-12-18T02:26:00.141Z,100056.75
2022-12-18T02:28:31.977Z,100066.34
2022-12-18T02:31:06.123Z,100066.31
2022-12-18T02:33:36.430Z,100066.25
2022-12-18T02:36:05.820Z,100067.00
2022-12-18T02:38:35.892Z,100088.53
2022-12-18T02:41:09.776Z,100088.44
2022-12-18T02:43:38.092Z,100087.56
2022-12-18T02:46:28.608Z,100103.03
2022-12-18T02:49:06.907Z,100103.81
2022-12-18T02:51:53.909Z,100096.06
2022-12-18T02:54:53.066Z,100113.19
2022-12-18T02:58:20.559Z,100132.31
2022-12-18T03:01:09.911Z,100132.25
2022-12-18T03:03:48.252Z,100134.09
2022-12-18T03:06:17.971Z,100145.25
2022-12-18T03:08:50.886Z,100148.75
2022-12-18T03:11:38.291Z,100150.44
2022-12-18T03:14:08.583Z,100153.03
2022-12-18T03:16:38.333Z,100154.81
2022-12-18T03:19:12.348Z,100152.28
2022-12-18T03:21:48.541Z,100153.81
2022-12-18T03:24:19.822Z,100157.41
2022-12-18T03:26:53.263Z,100165.03
2022-12-18T03:29:35.010Z,100172.00
2022-12-18T03:32:16.315Z,100170.19
2022-12-18T03:34:46.888Z,100178.84
2022-12-18T03:37:16.112Z,100188.25
2022-12-18T03:39:43.230Z,100181.28
2022-12-18T03:42:22.695Z,100185.69
2022-12-18T03:44:59.422Z,100182.03
2022-12-18T03:47:45.797Z,100188.09
2022-12-18T03:50:18.421Z,100199.16
2022-12-18T03:52:55.196Z,100200.03
2022-12-18T03:55:25.804Z,100208.84
2022-12-18T03:58:00.110Z,100215.63
2022-12-18T04:00:34.288Z,100222.44
2022-12-18T04:03:09.782Z,100212.97
2022-12-18T04:05:49.861Z,100222.50
2022-12-18T04:08:19.113Z,100232.75
2022-12-18T04:10:53.716Z,100225.91
2022-12-18T04:13:40.205Z,100235.38
2022-12-18T04:16:13.487Z,100231.91
2022-12-18T04:18:43.244Z,100236.16
2022-12-18T04:21:11.451Z,100238.66
2022-12-18T04:23:38.931Z,100242.94
2022-12-18T04:26:06.743Z,100249.97
2022-12-18T04:28:46.317Z,100246.50
2022-12-18T04:31:14.370Z,100255.19
2022-12-18T04:33:41.861Z,100268.03
2022-12-18T04:36:10.171Z,100276.69
2022-12-18T04:38:38.145Z,100276.47
2022-12-18T04:41:09.332Z,100286.09
2022-12-18T04:43:37.464Z,100290.44
2022-12-18T04:46:08.944Z,100286.28
2022-12-18T04:48:37.107Z,100294.56
2022-12-18T04:51:05.407Z,100297.34
2022-12-18T04:53:32.756Z,100294.59
2022-12-18T04:56:14.428Z,100309.28
2022-12-18T04:58:43.243Z,100316.91
2022-12-18T05:01:12.030Z,100299.63
2022-12-18T05:03:40.372Z,100308.16
2022-12-18T05:06:08.646Z,100320.25
2022-12-18T05:08:36.128Z,100321.94
2022-12-18T05:11:09.557Z,100324.59
2022-12-18T05:13:39.684Z,100330.63
2022-12-18T05:16:08.265Z,100328.78
2022-12-18T05:18:36.011Z,100337.50
2022-12-18T05:21:03.987Z,100346.91
2022-12-18T05:23:31.441Z,100352.31
2022-12-18T05:26:01.388Z,100359.28
2022-12-18T05:28:31.042Z,100361.00
2022-12-18T05:31:00.608Z,100366.13
2022-12-18T05:33:31.864Z,100378.03
2022-12-18T05:36:02.188Z,100376.41
2022-12-18T05:38:32.228Z,100386.69
2022-12-18T05:41:00.512Z,100389.38
2022-12-18T05:43:28.999Z,100396.25
2022-12-18T05:45:58.289Z,100405.69
2022-12-18T05:48:26.655Z,100399.56
2022-12-18T05:50:54.123Z,100402.06
2022-12-18T05:53:22.646Z,100402.97
2022-12-18T05:55:50.849Z,100415.94
2022-12-18T05:58:21.992Z,100420.97
2022-12-18T06:00:49.861Z,100433.19
2022-12-18T06:03:18.057Z,100437.56
2022-12-18T06:05:47.901Z,100438.53
2022-12-18T06:08:16.150Z,100447.94
2022-12-18T06:10:43.842Z,100445.53
2022-12-18T06:13:11.475Z,100445.41
2022-12-18T06:15:39.686Z,100456.47
2022-12-18T06:18:08.852Z,100443.53
2022-12-18T06:20:37.771Z,100449.53
2022-12-18T06:23:06.314Z,100453.03
2022-12-18T06:25:34.558Z,100457.47
2022-12-18T06:28:02.694Z,100464.84
2022-12-18T06:30:30.680Z,100472.88
2022-12-18T06:32:58.365Z,100468.69
2022-12-18T06:35:27.605Z,100473.94
2022-12-18T06:37:55.373Z,100480.81
2022-12-18T06:40:23.320Z,100499.69
2022-12-18T06:42:52.781Z,100504.81
2022-12-18T06:45:21.218Z,100510.78
2022-12-18T06:47:49.623Z,100511.75
2022-12-18T06:50:18.084Z,100504.75
2022-12-18T06:52:46.275Z,100507.41
2022-12-18T06:55:15.079Z,100523.72
2022-12-18T06:57:43.443Z,100523.47
2022-12-18T07:00:14.895Z,100520.00
2022-12-18T07:02:43.206Z,100533.97
2022-12-18T07:05:12.276Z,100527.00
2022-12-18T07:07:41.769Z,100534.91
2022-12-18T07:10:11.021Z,100533.22
2022-12-18T07:12:39.399Z,100539.22
2022-12-18T07:15:08.777Z,100534.88
2022-12-18T07:17:37.795Z,100552.91
2022-12-18T07:20:06.756Z,100548.56
2022-12-18T07:22:36.603Z,100550.41
2022-12-18T07:25:04.778Z,100559.81
2022-12-18T07:27:32.932Z,100557.50
2022-12-18T07:30:01.682Z,100566.47
2022-12-18T07:32:30.268Z,100571.59
2022-12-18T07:34:58.147Z,100570.69
2022-12-18T07:37:26.075Z,100568.94
2022-12-18T07:39:54.359Z,100582.09
2022-12-18T07:42:34.216Z,100587.38
2022-12-18T07:45:02.906Z,100578.66
2022-12-18T07:47:31.454Z,100591.47
2022-12-18T07:49:59.471Z,100592.25
2022-12-18T07:52:27.801Z,100599.22
2022-12-18T07:54:55.410Z,100598.38
2022-12-18T07:57:48.819Z,100615.56
2022-12-18T08:00:11.790Z,100621.56
2022-12-18T08:02:42.311Z,100620.97
2022-12-18T08:05:10.393Z,100631.25
2022-12-18T08:07:39.498Z,100634.66
2022-12-18T08:10:08.667Z,100635.56
2022-12-18T08:12:36.839Z,100639.00
2022-12-18T08:15:06.180Z,100637.94
2022-12-18T08:17:34.387Z,100647.19
2022-12-18T08:20:04.066Z,100649.00
2022-12-18T08:22:31.768Z,100652.47
2022-12-18T08:24:59.435Z,100656.81
2022-12-18T08:27:29.657Z,100663.72
2022-12-18T08:29:58.282Z,100662.94
2022-12-18T08:32:28.747Z,100675.94
2022-12-18T08:34:57.505Z,100676.81
2022-12-18T08:37:25.513Z,100674.94
2022-12-18T08:39:53.468Z,100674.03
2022-12-18T08:42:39.628Z,100685.41
2022-12-18T08:45:07.727Z,100679.97
2022-12-18T08:47:36.330Z,100678.16
2022-12-18T08:50:05.610Z,100675.47
2022-12-18T08:52:34.727Z,100678.16
2022-12-18T08:55:02.358Z,100678.97
2022-12-18T08:57:29.877Z,100685.16
2022-12-18T08:59:58.040Z,100684.09
2022-12-18T09:02:26.223Z,100683.28
2022-12-18T09:04:57.754Z,100684.09
2022-12-18T09:07:26.261Z,100692.59
2022-12-18T09:09:54.842Z,100689.09
2022-12-18T09:12:23.450Z,100682.25
2022-12-18T09:15:01.040Z,100690.81
2022-12-18T09:17:30.318Z,100691.03
2022-12-18T09:19:58.575Z,100696.44
2022-12-18T09:22:26.435Z,100703.47
2022-12-18T09:24:54.018Z,100707.13
2022-12-18T09:27:21.387Z,100710.66
2022-12-18T09:29:48.808Z,100707.31
2022-12-18T09:32:22.200Z,100708.59
2022-12-18T09:34:51.040Z,100717.72
2022-12-18T09:37:19.014Z,100707.75
2022-12-18T09:39:46.540Z,100707.56
2022-12-18T09:42:23.794Z,100712.50
2022-12-18T09:44:56.021Z,100723.78
2022-12-18T09:47:35.884Z,100723.16
2022-12-18T09:50:14.261Z,100720.63
2022-12-18T09:52:49.748Z,100724.75
2022-12-18T09:55:47.446Z,100718.72
2022-12-18T09:58:30.329Z,100732.00
2022-12-18T10:00:57.958Z,100741.59
2022-12-18T10:03:25.532Z,100739.81
2022-12-18T10:06:05.987Z,100725.09
2022-12-18T10:08:57.058Z,100742.38
2022-12-18T10:11:41.491Z,100745.09
2022-12-18T10:14:21.250Z,100742.53
2022-12-18T10:16:51.453Z,100750.47
2022-12-18T10:19:54.984Z,100762.75
2022-12-18T10:22:37.773Z,100762.00
2022-12-18T10:25:20.968Z,100779.34
2022-12-18T10:27:49.711Z,100775.91
2022-12-18T10:30:20.594Z,100774.81
2022-12-18T10:32:48.699Z,100770.31
2022-12-18T10:35:26.077Z,100775.50
2022-12-18T10:38:27.404Z,100774.41
2022-12-18T10:41:02.791Z,100779.66
2022-12-18T10:43:36.835Z,100775.25
2022-12-18T10:46:17.243Z,100784.06
2022-12-18T10:48:59.218Z,100784.31
2022-12-18T10:51:37.462Z,100784.88
2022-12-18T10:54:35.802Z,100786.34
2022-12-18T10:57:40.389Z,100793.44
2022-12-18T11:00:23.159Z,100792.34
2022-12-18T11:02:52.170Z,100792.53
2022-12-18T11:05:33.275Z,100803.63
2022-12-18T11:08:02.837Z,100797.44
2022-12-18T11:10:35.026Z,100809.97
2022-12-18T11:13:35.281Z,100812.00
2022-12-18T11:16:04.072Z,100821.03
2022-12-18T11:18:36.133Z,100815.16
2022-12-18T11:21:15.485Z,100824.44
2022-12-18T11:23:53.325Z,100824.47
2022-12-18T11:26:23.105Z,100839.28
2022-12-18T11:29:12.563Z,100849.72
2022-12-18T11:31:40.461Z,100855.88
2022-12-18T11:34:31.955Z,100857.91
2022-12-18T11:37:02.631Z,100859.41
2022-12-18T11:39:41.804Z,100865.41
2022-12-18T11:42:21.567Z,100860.28
2022-12-18T11:45:00.003Z,100875.41
2022-12-18T11:47:42.968Z,100877.72
2022-12-18T11:50:17.708Z,100878.56
2022-12-18T11:52:45.109Z,100869.81
2022-12-18T11:55:32.576Z,100869.84
2022-12-18T11:58:19.436Z,100875.22
2022-12-18T12:01:08.224Z,100873.72
2022-12-18T12:04:00.875Z,100876.34
2022-12-18T12:06:36.910Z,100880.06
2022-12-18T12:09:10.302Z,100884.03
2022-12-18T12:11:46.271Z,100888.00
2022-12-18T12:14:30.486Z,100883.63
2022-12-18T12:17:12.209Z,100893.41
2022-12-18T12:19:46.147Z,100898.50
2022-12-18T12:22:32.365Z,100898.50
2022-12-18T12:25:09.150Z,100911.44
2022-12-18T12:27:58.686Z,100925.28
2022-12-18T12:30:45.315Z,100920.75
2022-12-18T12:33:42.526Z,100924.00
2022-12-18T12:36:35.442Z,100925.78
2022-12-18T12:39:09.912Z,100937.69
2022-12-18T12:41:58.624Z,100932.63
2022-12-18T12:44:35.654Z,100942.78
2022-12-18T12:47:18.759Z,100947.00
2022-12-18T12:49:51.573Z,100948.59
2022-12-18T12:52:26.555Z,100959.28
2022-12-18T12:54:55.031Z,100967.34
2022-12-18T12:57:35.357Z,100967.69
2022-12-18T13:00:16.214Z,100969.97
2022-12-18T13:02:54.835Z,100973.41
2022-12-18T13:05:55.615Z,100970.13
2022-12-18T13:08:47.253Z,100963.72
2022-12-18T13:11:48.919Z,100985.25
2022-12-18T13:14:30.262Z,100987.13
2022-12-18T13:17:22.146Z,100992.63
2022-12-18T13:20:06.445Z,101004.06
2022-12-18T13:22:49.098Z,101008.09
2022-12-18T13:25:30.223Z,101008.81
2022-12-18T13:28:25.762Z,101013.88
2022-12-18T13:30:58.372Z,101024.19
2022-12-18T13:33:31.888Z,101024.91
2022-12-18T13:36:14.217Z,101031.53
2022-12-18T13:38:43.807Z,101031.28
2022-12-18T13:41:15.230Z,101027.44
2022-12-18T13:43:47.299Z,101035.53
2022-12-18T13:46:29.214Z,101037.44
2022-12-18T13:49:05.903Z,101040.94
2022-12-18T13:51:35.852Z,101048.69
2022-12-18T13:54:41.267Z,101049.44
2022-12-18T13:57:32.534Z,101066.53
2022-12-18T14:00:32.545Z,101067.84
2022-12-18T14:03:00.993Z,101075.72
2022-12-18T14:05:30.975Z,101084.47
2022-12-18T14:08:06.420Z,101079.00
2022-12-18T14:10:49.028Z,101085.88
2022-12-18T14:13:36.036Z,101090.78
2022-12-18T14:16:06.820Z,101109.75
2022-12-18T14:18:45.146Z,101115.84
2022-12-18T14:21:23.936Z,101115.59
2022-12-18T14:24:08.090Z,101117.75
2022-12-18T14:26:35.945Z,101122.56
2022-12-18T14:29:30.154Z,101123.06
2022-12-18T14:32:18.203Z,101141.41
2022-12-18T14:34:55.644Z,101148.81
2022-12-18T14:37:26.654Z,101141.97
2022-12-18T14:40:11.037Z,101151.50
2022-12-18T14:42:39.854Z,101160.84
2022-12-18T14:45:42.535Z,101160.13
2022-12-18T14:48:13.347Z,101165.59
2022-12-18T14:50:43.397Z,101176.56
2022-12-18T14:53:24.135Z,101169.00
2022-12-18T14:55:52.154Z,101178.16
2022-12-18T14:58:20.077Z,101182.47
2022-12-18T15:00:47.431Z,101178.91
2022-12-18T15:03:21.472Z,101190.28
2022-12-18T15:05:49.367Z,101185.97
2022-12-18T15:08:38.621Z,101189.25
2022-12-18T15:11:28.433Z,101205.69
2022-12-18T15:13:55.351Z,101207.53
2022-12-18T15:16:22.483Z,101209.31
2022-12-18T15:18:50.510Z,101216.13
2022-12-18T15:21:21.617Z,101216.13
2022-12-18T15:23:52.381Z,101221.97
2022-12-18T15:26:21.736Z,101233.06
2022-12-18T15:28:50.855Z,101244.56
2022-12-18T15:31:18.431Z,101248.81
2022-12-18T15:33:54.139Z,101247.09
2022-12-18T15:36:26.385Z,101242.31
2022-12-18T15:38:57.882Z,101255.25
2022-12-18T15:41:37.425Z,101259.41
2022-12-18T15:44:24.280Z,101273.97
2022-12-18T15:46:51.317Z,101274.28
2022-12-18T15:49:18.574Z,101282.72
2022-12-18T15:51:50.018Z,101285.91
2022-12-18T15:54:17.897Z,101279.44
2022-12-18T15:57:03.706Z,101294.06
2022-12-18T15:59:31.370Z,101303.66
2022-12-18T16:01:58.966Z,101293.19
2022-12-18T16:04:27.021Z,101305.50
2022-12-18T16:09:41.167Z,101312.59
2022-12-18T16:12:16.753Z,101316.25
2022-12-18T16:14:43.849Z,101324.19
2022-12-18T16:17:12.777Z,101319.44
2022-12-18T16:19:39.880Z,101337.41
2022-12-18T16:22:10.112Z,101339.22
2022-12-18T16:24:37.454Z,101339.50
2022-12-18T16:27:04.605Z,101348.06
2022-12-18T16:29:31.465Z,101347.06
2022-12-18T16:31:59.818Z,101357.38
2022-12-18T16:34:29.713Z,101352.06
2022-12-18T16:37:05.618Z,101363.00
2022-12-18T16:39:38.081Z,101360.69
2022-12-18T16:42:08.418Z,101367.44
2022-12-18T16:44:35.854Z,101368.16
2022-12-18T16:47:04.089Z,101367.91
2022-12-18T16:49:32.312Z,101381.47
2022-12-18T16:51:59.454Z,101390.03
2022-12-18T16:54:26.537Z,101395.47
2022-12-18T16:56:54.451Z,101398.97
2022-12-18T16:59:21.496Z,101398.53
2022-12-18T17:01:49.196Z,101402.84
2022-12-18T17:04:17.664Z,101407.06
2022-12-18T17:06:51.823Z,101408.84
2022-12-18T17:09:26.609Z,101405.25
2022-12-18T17:11:54.994Z,101409.81
2022-12-18T17:14:24.265Z,101425.97
2022-12-18T17:17:19.218Z,101429.94
2022-12-18T17:19:39.584Z,101424.44
2022-12-18T17:22:08.373Z,101443.63
2022-12-18T17:24:36.713Z,101446.13
2022-12-18T17:27:04.787Z,101446.03
2022-12-18T17:29:31.764Z,101446.75
2022-12-18T17:32:00.516Z,101440.84
2022-12-18T17:34:28.557Z,101444.09
2022-12-18T17:36:57.007Z,101445.94
2022-12-18T17:39:24.047Z,101446.38
2022-12-18T17:41:51.395Z,101445.22
2022-12-18T17:44:19.319Z,101458.31
2022-12-18T17:46:49.115Z,101462.56
2022-12-18T17:49:16.248Z,101469.66
2022-12-18T17:51:43.399Z,101457.19
2022-12-18T17:54:11.152Z,101464.50
2022-12-18T17:56:38.726Z,101469.66
2022-12-18T17:59:07.012Z,101460.81
2022-12-18T18:01:37.302Z,101460.56
2022-12-18T18:04:08.409Z,101476.28
2022-12-18T18:06:37.241Z,101467.59
2022-12-18T18:09:08.184Z,101477.16
2022-12-18T18:12:04.392Z,101483.78
2022-12-18T18:14:32.203Z,101492.56
2022-12-18T18:17:03.898Z,101490.66
2022-12-18T18:19:32.361Z,101493.75
2022-12-18T18:21:59.252Z,101492.94
2022-12-18T18:24:26.574Z,101496.09
2022-12-18T18:26:58.926Z,101502.00
2022-12-18T18:29:27.875Z,101498.47
2022-12-18T18:31:57.019Z,101506.72
2022-12-18T18:34:26.794Z,101520.22
2022-12-18T18:36:54.417Z,101524.63
2022-12-18T18:39:21.617Z,101516.81
2022-12-18T18:41:48.930Z,101526.47
2022-12-18T18:44:18.088Z,101533.03
2022-12-18T18:46:45.721Z,101537.44
2022-12-18T18:49:14.217Z,101534.06
2022-12-18T18:51:42.226Z,101547.84
2022-12-18T18:54:10.188Z,101546.88
2022-12-18T18:57:11.327Z,101560.72
2022-12-18T18:59:30.367Z,101564.69
2022-12-18T19:02:00.608Z,101571.72
2022-12-18T19:04:31.856Z,101565.72
2022-12-18T19:06:58.940Z,101572.66
2022-12-18T19:09:26.473Z,101582.34
2022-12-18T19:12:12.451Z,101597.00
2022-12-18T19:14:39.432Z,101593.22
2022-12-18T19:17:07.091Z,101599.34
2022-12-18T19:19:33.897Z,101598.63
2022-12-18T19:22:01.443Z,101595.41
2022-12-18T19:24:28.485Z,101598.72
2022-12-18T19:26:58.187Z,101596.44
2022-12-18T19:29:25.421Z,101603.53
2022-12-18T19:31:52.392Z,101609.59
2022-12-18T19:34:19.324Z,101615.06
2022-12-18T19:36:46.650Z,101635.41
2022-12-18T19:39:16.670Z,101649.00
2022-12-18T19:41:44.543Z,101643.13
2022-12-18T19:44:13.854Z,101651.84
2022-12-18T19:46:42.989Z,101660.38
2022-12-18T19:49:10.907Z,101661.34
2022-12-18T19:51:38.529Z,101659.00
2022-12-18T19:54:05.796Z,101675.31
2022-12-18T19:56:34.544Z,101675.31
2022-12-18T19:59:03.039Z,101675.84
2022-12-18T20:01:31.025Z,101679.97
2022-12-18T20:03:59.009Z,101682.28
2022-12-18T20:06:28.761Z,101680.28
2022-12-18T20:09:00.199Z,101686.41
2022-12-18T20:11:29.708Z,101688.41
2022-12-18T20:13:58.074Z,101687.38
2022-12-18T20:16:25.450Z,101695.84
2022-12-18T20:18:55.402Z,101697.94
2022-12-18T20:21:23.032Z,101702.34
2022-12-18T20:23:50.456Z,101702.06
2022-12-18T20:26:17.567Z,101706.88
2022-12-18T20:28:44.619Z,101716.56
2022-12-18T20:31:13.695Z,101717.47
2022-12-18T20:33:47.512Z,101735.16
2022-12-18T20:36:21.362Z,101735.66
2022-12-18T20:38:54.695Z,101736.69
2022-12-18T20:41:26.226Z,101736.38
2022-12-18T20:44:01.972Z,101736.38
2022-12-18T20:46:28.973Z,101743.38
2022-12-18T20:48:56.159Z,101749.03
2022-12-18T20:51:23.148Z,101757.56
2022-12-18T20:53:49.939Z,101753.22
2022-12-18T20:56:21.161Z,101757.63
2022-12-18T20:58:49.752Z,101757.47
2022-12-18T21:01:20.176Z,101756.59
2022-12-18T21:03:47.930Z,101755.72
2022-12-18T21:06:16.366Z,101767.47
2022-12-18T21:08:43.978Z,101784.78
2022-12-18T21:11:39.754Z,101779.28
2022-12-18T21:14:17.235Z,101781.25
2022-12-18T21:16:45.299Z,101784.09
2022-12-18T21:19:16.377Z,101791.31
2022-12-18T21:21:44.072Z,101788.38
2022-12-18T21:24:11.269Z,101784.84
2022-12-18T21:26:45.511Z,101794.06
2022-12-18T21:29:19.161Z,101788.03
2022-12-18T21:31:46.868Z,101800.13
2022-12-18T21:34:34.297Z,101799.13
2022-12-18T21:37:02.006Z,101813.06
2022-12-18T21:39:30.851Z,101810.06
2022-12-18T21:42:17.050Z,101810.41
2022-12-18T21:44:46.928Z,101815.22
2022-12-18T21:47:22.708Z,101807.22
2022-12-18T21:49:53.841Z,101802.16
2022-12-18T21:52:28.329Z,101805.16
2022-12-18T21:55:08.052Z,101807.19
2022-12-18T21:57:37.068Z,101804.25
2022-12-18T22:00:05.255Z,101802.84
2022-12-18T22:02:39.197Z,101812.41
2022-12-18T22:05:06.840Z,101813.19
2022-12-18T22:07:34.079Z,101815.31
2022-12-18T22:10:02.019Z,101815.13
2022-12-18T22:12:35.820Z,101813.59
2022-12-18T22:15:20.310Z,101816.66
2022-12-18T22:17:49.335Z,101820.47
2022-12-18T22:20:16.229Z,101824.94
2022-12-18T22:22:43.142Z,101829.19
2022-12-18T22:25:10.796Z,101836.81
2022-12-18T22:27:37.853Z,101826.34
2022-12-18T22:30:05.753Z,101830.91
2022-12-18T22:32:33.997Z,101828.72
2022-12-18T22:35:07.918Z,101834.78
2022-12-18T22:37:36.789Z,101845.06
2022-12-18T22:40:06.062Z,101846.16
2022-12-18T22:42:34.593Z,101842.81
2022-12-18T22:45:01.535Z,101851.63
2022-12-18T22:47:30.504Z,101860.63
2022-12-18T22:49:58.239Z,101864.75
2022-12-18T22:52:25.629Z,101868.03
2022-12-18T22:54:53.865Z,101859.50
2022-12-18T22:57:22.816Z,101857.75
2022-12-18T22:59:51.067Z,101858.22
2022-12-18T23:02:19.192Z,101858.84
2022-12-18T23:04:47.896Z,101865.94
2022-12-18T23:07:16.236Z,101871.75
2022-12-18T23:09:43.083Z,101876.84
2022-12-18T23:12:19.608Z,101865.75
2022-12-18T23:14:47.412Z,101874.16
2022-12-18T23:17:14.534Z,101866.91
2022-12-18T23:19:47.123Z,101869.97
2022-12-18T23:22:16.112Z,101872.63
2022-12-18T23:24:42.972Z,101867.16
2022-12-18T23:27:11.983Z,101871.50
2022-12-18T23:29:39.715Z,101873.63
2022-12-18T23:32:07.006Z,101870.84
2022-12-18T23:34:33.773Z,101874.03
2022-12-18T23:37:01.241Z,101864.94
2022-12-18T23:39:30.148Z,101861.91
2022-12-18T23:42:01.536Z,101870.28
2022-12-18T23:44:29.061Z,101859.81
2022-12-18T23:46:56.049Z,101865.69
2022-12-18T23:49:23.436Z,101872.69
2022-12-18T23:51:50.539Z,101874.94
2022-12-18T23:54:17.607Z,101874.13
2022-12-18T23:56:45.792Z,101872.09
2022-12-18T23:59:18.473Z,101875.91
